Time;durP1;ratioP1;P1;durP2;ratioP2;P2;SDS_P1;SDS_P2;PMS_P1;PMS_P2;Temp;Humidity;BMP_temperature;BMP_pressure;BME280_temperature;BME280_humidity;BME280_pressure;Samples;Min_cycle;Max_cycle;Signal;HPM_P1;HPM_P2
2021/07/30 00:02:05;;;;;;;6.83;3.90;;;17.50;1.00;;;;;;5024129;28;21314;-72
2021/07/30 00:04:32;;;;;;;5.63;3.40;;;17.40;1.00;;;;;;5029870;28;20486;-72
2021/07/30 00:06:59;;;;;;;5.17;3.57;;;17.30;1.00;;;;;;5026352;28;20459;-72
2021/07/30 00:09:28;;;;;;;8.13;4.00;;;17.20;1.00;;;;;;5018659;28;21024;-73
2021/07/30 00:11:54;;;;;;;7.70;4.33;;;17.10;1.00;;;;;;5022925;28;20505;-79
2021/07/30 00:14:21;;;;;;;6.37;3.70;;;17.10;1.00;;;;;;5024925;28;20468;-74
2021/07/30 00:16:48;;;;;;;5.80;4.20;;;17.10;1.00;;;;;;5029571;28;20447;-76
2021/07/30 00:19:15;;;;;;;4.70;3.40;;;17.10;1.00;;;;;;5028100;28;24323;-76
2021/07/30 00:21:41;;;;;;;4.70;4.10;;;17.10;1.00;;;;;;5024587;28;20467;-76
2021/07/30 00:24:08;;;;;;;6.07;3.90;;;17.10;1.00;;;;;;5024655;28;20479;-75
2021/07/30 00:26:36;;;;;;;8.07;4.07;;;17.10;1.00;;;;;;5030576;28;20474;-76
2021/07/30 00:29:03;;;;;;;4.20;3.80;;;17.10;1.00;;;;;;5026002;28;20471;-75
2021/07/30 00:31:29;;;;;;;5.57;4.43;;;17.00;1.00;;;;;;5028468;28;20435;-75
2021/07/30 00:33:56;;;;;;;4.57;3.80;;;17.00;1.00;;;;;;5027149;28;20440;-75
2021/07/30 00:36:22;;;;;;;9.33;4.43;;;17.00;1.00;;;;;;5027309;28;20415;-75
2021/07/30 00:38:49;;;;;;;7.20;4.80;;;17.00;1.00;;;;;;5024019;28;20475;-77
2021/07/30 00:41:16;;;;;;;5.10;3.70;;;17.00;1.00;;;;;;5029873;28;20876;-77
2021/07/30 00:43:44;;;;;;;7.60;5.40;;;16.90;1.00;;;;;;5026793;28;20754;-75
2021/07/30 00:46:11;;;;;;;4.57;4.17;;;16.90;1.00;;;;;;5024819;28;20455;-74
2021/07/30 00:48:38;;;;;;;8.20;4.40;;;16.80;1.00;;;;;;5027786;28;20908;-75
2021/07/30 00:51:05;;;;;;;7.30;4.87;;;16.60;1.00;;;;;;5025756;28;21325;-75
2021/07/30 00:53:32;;;;;;;9.83;4.60;;;16.50;1.00;;;;;;5030112;28;20498;-74
2021/07/30 00:55:59;;;;;;;4.87;4.30;;;16.40;1.00;;;;;;5029630;28;20492;-76
2021/07/30 00:58:28;;;;;;;4.50;4.00;;;16.30;1.00;;;;;;5026959;28;21561;-77
2021/07/30 01:00:57;;;;;;;6.70;4.27;;;16.30;1.00;;;;;;5026345;28;20482;-78
2021/07/30 01:03:23;;;;;;;8.80;4.63;;;16.30;1.00;;;;;;5024526;28;20461;-77
2021/07/30 01:05:51;;;;;;;6.30;3.80;;;16.20;1.00;;;;;;5026443;28;20514;-76
2021/07/30 01:08:18;;;;;;;6.50;4.33;;;16.20;1.00;;;;;;5024134;28;20480;-75
2021/07/30 01:10:45;;;;;;;6.63;3.83;;;16.10;1.00;;;;;;5018429;28;20537;-74
2021/07/30 01:13:11;;;;;;;3.93;3.47;;;16.20;1.00;;;;;;5025814;28;21076;-75
2021/07/30 01:15:38;;;;;;;5.10;3.70;;;16.10;1.00;;;;;;5024942;28;20462;-76
2021/07/30 01:18:06;;;;;;;5.40;3.90;;;16.10;1.00;;;;;;5026763;28;20833;-76
2021/07/30 01:20:38;;;;;;;4.40;3.50;;;16.20;1.00;;;;;;5023190;28;20479;-76
2021/07/30 01:23:08;;;;;;;5.40;3.77;;;16.10;1.00;;;;;;5025226;28;20568;-76
2021/07/30 01:25:35;;;;;;;5.40;3.43;;;16.10;1.00;;;;;;5027216;28;20476;-76
2021/07/30 01:28:02;;;;;;;7.77;3.73;;;16.10;1.00;;;;;;5027776;28;20513;-76
2021/07/30 01:30:29;;;;;;;4.90;3.63;;;16.10;1.00;;;;;;5026742;28;20431;-76
2021/07/30 01:32:55;;;;;;;3.93;3.47;;;16.10;1.00;;;;;;5026056;28;20443;-75
2021/07/30 01:35:22;;;;;;;4.83;3.43;;;16.10;1.00;;;;;;5024712;28;20454;-78
2021/07/30 01:37:49;;;;;;;5.50;3.83;;;16.10;1.00;;;;;;5026705;28;20450;-78
2021/07/30 01:40:21;;;;;;;6.10;3.70;;;16.10;1.00;;;;;;5083123;22;20488;-76
2021/07/30 01:42:48;;;;;;;6.37;3.97;;;16.10;1.00;;;;;;5075017;28;20501;-76
2021/07/30 01:45:14;;;;;;;7.30;3.50;;;16.00;1.00;;;;;;5079148;28;21241;-77
2021/07/30 01:47:41;;;;;;;6.80;3.87;;;15.90;1.00;;;;;;5080664;28;20459;-77
2021/07/30 01:50:09;;;;;;;5.13;3.60;;;15.90;1.00;;;;;;5074900;28;20453;-76
2021/07/30 01:52:35;;;;;;;4.77;3.73;;;15.80;1.00;;;;;;5075537;28;20445;-78
2021/07/30 01:55:02;;;;;;;5.43;3.43;;;15.80;1.00;;;;;;5070399;28;20829;-77
2021/07/30 01:57:31;;;;;;;5.30;4.50;;;15.70;1.00;;;;;;5071535;28;20475;-77
2021/07/30 01:59:58;;;;;;;4.57;3.90;;;15.70;1.00;;;;;;5069821;28;21360;-78
2021/07/30 02:02:24;;;;;;;4.50;3.70;;;15.70;1.00;;;;;;5071464;28;20440;-78
2021/07/30 02:04:51;;;;;;;5.47;4.00;;;15.60;1.00;;;;;;5068258;28;20459;-77
2021/07/30 02:07:18;;;;;;;4.40;3.53;;;15.60;1.00;;;;;;5070437;28;21011;-78
2021/07/30 02:09:46;;;;;;;6.30;4.00;;;15.60;1.00;;;;;;5073696;28;20540;-77
2021/07/30 02:12:14;;;;;;;4.30;3.90;;;15.60;1.00;;;;;;5078816;28;20555;-78
2021/07/30 02:14:42;;;;;;;4.77;4.37;;;15.50;1.00;;;;;;5076356;28;20461;-77
2021/07/30 02:17:08;;;;;;;5.57;4.23;;;15.50;1.00;;;;;;5079522;28;20694;-79
2021/07/30 02:19:35;;;;;;;4.60;3.87;;;15.40;1.00;;;;;;5069521;28;20470;-77
2021/07/30 02:22:01;;;;;;;5.30;4.27;;;15.40;1.00;;;;;;5068137;28;21418;-78
2021/07/30 02:24:28;;;;;;;4.97;4.20;;;15.40;1.00;;;;;;5069512;28;21136;-79
2021/07/30 02:26:55;;;;;;;4.60;4.07;;;15.30;1.00;;;;;;5069011;28;20464;-79
2021/07/30 02:29:22;;;;;;;4.00;3.57;;;15.30;1.00;;;;;;5067252;28;20440;-77
2021/07/30 02:31:50;;;;;;;7.57;3.80;;;15.30;1.00;;;;;;5071040;28;21922;-78
2021/07/30 02:34:17;;;;;;;6.97;3.87;;;15.30;1.00;;;;;;5079421;28;20418;-79
2021/07/30 02:36:44;;;;;;;5.20;3.87;;;15.30;1.00;;;;;;5074306;28;20449;-77
2021/07/30 02:39:10;;;;;;;5.07;3.23;;;15.40;1.00;;;;;;5075584;28;20440;-78
2021/07/30 02:41:37;;;;;;;3.87;3.50;;;15.30;1.00;;;;;;5072777;28;20484;-78
2021/07/30 02:44:04;;;;;;;4.90;3.97;;;15.30;1.00;;;;;;5073430;28;20436;-79
2021/07/30 02:46:31;;;;;;;9.83;4.10;;;15.30;1.00;;;;;;5073959;28;20459;-78
2021/07/30 02:48:59;;;;;;;5.90;4.00;;;15.30;1.00;;;;;;5074157;28;20428;-78
2021/07/30 02:51:26;;;;;;;6.30;4.53;;;15.30;1.00;;;;;;5074833;28;20440;-79
2021/07/30 02:53:53;;;;;;;5.27;4.20;;;15.30;1.00;;;;;;5073117;28;21030;-78
2021/07/30 02:56:19;;;;;;;7.57;4.10;;;15.30;1.00;;;;;;5073500;28;20487;-78
2021/07/30 02:58:46;;;;;;;9.40;4.50;;;15.30;1.00;;;;;;5073250;28;20440;-78
2021/07/30 03:01:13;;;;;;;4.50;4.10;;;15.30;1.00;;;;;;5073240;28;20447;-78
2021/07/30 03:03:39;;;;;;;4.20;3.80;;;15.30;1.00;;;;;;5072510;28;20451;-78
2021/07/30 03:06:07;;;;;;;4.03;3.73;;;15.30;1.00;;;;;;5072580;28;20474;-79
2021/07/30 03:08:34;;;;;;;4.40;3.60;;;15.30;1.00;;;;;;5071742;28;20478;-78
2021/07/30 03:11:01;;;;;;;5.10;4.47;;;15.30;1.00;;;;;;5076410;28;21384;-79
2021/07/30 03:13:27;;;;;;;5.20;4.37;;;15.20;1.00;;;;;;5072996;28;20433;-78
2021/07/30 03:15:55;;;;;;;3.80;3.40;;;15.20;1.00;;;;;;5069192;28;20535;-78
2021/07/30 03:18:22;;;;;;;7.20;4.33;;;15.20;1.00;;;;;;5073937;28;20986;-77
2021/07/30 03:20:48;;;;;;;4.90;4.13;;;15.20;1.00;;;;;;5071358;28;20456;-80
2021/07/30 03:23:17;;;;;;;6.00;4.10;;;15.30;1.00;;;;;;5072239;28;20937;-80
2021/07/30 03:25:43;;;;;;;6.43;4.30;;;15.30;1.00;;;;;;5073852;28;20478;-79
2021/07/30 03:28:10;;;;;;;5.43;3.93;;;15.20;1.00;;;;;;5074145;28;20494;-81
2021/07/30 03:30:37;;;;;;;5.40;4.27;;;15.30;1.00;;;;;;5073021;28;20457;-79
2021/07/30 03:33:04;;;;;;;6.03;4.40;;;15.30;1.00;;;;;;5076823;28;21306;-80
2021/07/30 03:35:30;;;;;;;4.70;4.30;;;15.30;1.00;;;;;;5074837;28;20456;-80
2021/07/30 03:37:57;;;;;;;5.30;4.40;;;15.30;1.00;;;;;;5075627;28;20471;-80
2021/07/30 03:40:25;;;;;;;5.23;4.73;;;15.30;1.00;;;;;;5076305;28;20471;-81
2021/07/30 03:42:52;;;;;;;8.33;4.30;;;15.30;1.00;;;;;;5074663;28;20453;-81
2021/07/30 03:45:19;;;;;;;6.70;5.10;;;15.40;1.00;;;;;;5072720;28;20466;-80
2021/07/30 03:47:45;;;;;;;6.67;4.47;;;15.40;1.00;;;;;;5074513;28;20429;-82
2021/07/30 03:50:12;;;;;;;7.97;6.10;;;15.40;1.00;;;;;;5076329;28;21073;-81
2021/07/30 03:52:39;;;;;;;7.03;4.70;;;15.50;1.00;;;;;;5076031;28;20456;-82
2021/07/30 03:55:06;;;;;;;4.60;4.10;;;15.50;1.00;;;;;;5078319;28;20464;-81
2021/07/30 03:57:34;;;;;;;7.97;4.60;;;15.50;1.00;;;;;;5079026;28;20456;-81
2021/07/30 04:00:01;;;;;;;6.20;4.43;;;15.60;1.00;;;;;;5078596;28;20470;-82
2021/07/30 04:02:28;;;;;;;6.93;4.07;;;15.60;1.00;;;;;;5076094;28;20479;-82
2021/07/30 04:04:55;;;;;;;6.83;4.63;;;15.60;1.00;;;;;;5076220;28;20623;-80
2021/07/30 04:07:21;;;;;;;7.77;4.50;;;15.60;1.00;;;;;;5079147;28;20455;-80
2021/07/30 04:09:48;;;;;;;5.07;4.33;;;15.60;1.00;;;;;;5075998;28;20432;-80
2021/07/30 04:12:15;;;;;;;6.13;4.03;;;15.60;1.00;;;;;;5077896;28;20478;-82
2021/07/30 04:14:43;;;;;;;4.27;3.97;;;15.50;1.00;;;;;;5078266;28;20470;-79
2021/07/30 04:17:11;;;;;;;5.53;3.93;;;15.50;1.00;;;;;;5092838;28;21805;-79
2021/07/30 04:19:43;;;;;;;7.63;4.90;;;15.50;1.00;;;;;;5075204;28;20448;-79
2021/07/30 04:22:10;;;;;;;11.83;4.80;;;15.50;1.00;;;;;;5078819;28;20465;-81
2021/07/30 04:24:37;;;;;;;5.77;4.37;;;15.50;1.00;;;;;;5081358;28;20463;-81
2021/07/30 04:27:05;;;;;;;6.43;4.27;;;15.60;1.00;;;;;;5073618;28;20535;-80
2021/07/30 04:29:32;;;;;;;7.50;4.67;;;15.60;1.00;;;;;;5075408;28;20465;-81
2021/07/30 04:32:00;;;;;;;6.03;4.77;;;15.50;1.00;;;;;;5076820;28;20436;-81
2021/07/30 04:34:29;;;;;;;4.80;4.00;;;15.60;1.00;;;;;;5075074;28;20455;-81
2021/07/30 04:36:55;;;;;;;5.30;4.60;;;15.60;1.00;;;;;;5078368;28;20402;-81
2021/07/30 04:39:22;;;;;;;4.83;4.00;;;15.60;1.00;;;;;;5076182;28;21909;-81
2021/07/30 04:41:48;;;;;;;6.83;4.20;;;15.60;1.00;;;;;;5079833;28;20397;-80
2021/07/30 04:44:15;;;;;;;8.73;5.07;;;15.60;1.00;;;;;;5079516;28;20820;-79
2021/07/30 04:46:42;;;;;;;5.57;4.57;;;15.60;1.00;;;;;;5080990;28;20452;-79
2021/07/30 04:49:10;;;;;;;4.60;4.13;;;15.60;1.00;;;;;;5084356;28;20444;-79
2021/07/30 04:51:36;;;;;;;8.97;5.30;;;15.60;1.00;;;;;;5080901;28;20504;-79
2021/07/30 04:54:03;;;;;;;6.67;4.33;;;15.60;1.00;;;;;;5077046;28;20445;-80
2021/07/30 04:56:29;;;;;;;8.67;5.63;;;15.70;1.00;;;;;;5078686;28;20526;-81
2021/07/30 04:58:56;;;;;;;5.43;4.93;;;15.70;1.00;;;;;;5076298;28;21126;-80
2021/07/30 05:01:23;;;;;;;5.13;3.80;;;15.80;1.00;;;;;;5075200;28;20487;-82
2021/07/30 05:03:50;;;;;;;7.23;4.80;;;15.90;1.00;;;;;;5076813;28;20452;-80
2021/07/30 05:06:19;;;;;;;5.13;4.33;;;15.90;1.00;;;;;;5074941;28;20442;-79
2021/07/30 05:08:47;;;;;;;6.07;4.40;;;16.00;1.00;;;;;;5077159;28;20492;-80
2021/07/30 05:11:14;;;;;;;7.77;5.00;;;16.00;1.00;;;;;;5077899;28;20435;-79
2021/07/30 05:13:42;;;;;;;5.00;3.93;;;16.10;1.00;;;;;;5090180;28;20796;-80
2021/07/30 05:16:09;;;;;;;8.30;4.67;;;16.10;1.00;;;;;;5085447;28;22668;-70
2021/07/30 05:18:36;;;;;;;6.43;5.00;;;16.10;1.00;;;;;;5064212;28;21309;-70
2021/07/30 05:21:07;;;;;;;7.47;4.77;;;16.10;1.00;;;;;;5066630;28;20424;-69
2021/07/30 05:23:35;;;;;;;4.63;3.93;;;16.10;1.00;;;;;;5066724;28;20464;-70
2021/07/30 05:26:02;;;;;;;5.23;4.73;;;16.20;1.00;;;;;;5065893;28;20460;-70
2021/07/30 05:28:30;;;;;;;6.57;4.60;;;16.40;1.00;;;;;;5068601;28;21044;-70
2021/07/30 05:30:58;;;;;;;8.30;4.70;;;16.50;1.00;;;;;;5068888;28;21164;-69
2021/07/30 05:33:25;;;;;;;4.77;4.03;;;16.60;1.00;;;;;;5066521;28;20462;-70
2021/07/30 05:35:52;;;;;;;7.07;4.60;;;16.70;1.00;;;;;;5066813;28;20530;-70
2021/07/30 05:38:19;;;;;;;6.40;4.10;;;16.70;1.00;;;;;;5067113;28;20510;-69
2021/07/30 05:40:47;;;;;;;8.53;4.40;;;16.70;1.00;;;;;;5066454;28;22867;-70
2021/07/30 05:43:13;;;;;;;5.53;4.10;;;16.80;1.00;;;;;;5064272;28;20464;-70
2021/07/30 05:45:40;;;;;;;5.50;4.30;;;16.80;1.00;;;;;;5068224;28;20447;-71
2021/07/30 05:48:07;;;;;;;8.97;4.67;;;16.90;1.00;;;;;;5064836;28;20537;-70
2021/07/30 05:50:34;;;;;;;7.03;3.87;;;17.00;1.00;;;;;;5065145;28;20544;-69
2021/07/30 05:53:01;;;;;;;5.30;4.03;;;17.10;1.00;;;;;;5065762;28;20527;-70
2021/07/30 05:55:28;;;;;;;4.90;4.40;;;17.20;1.00;;;;;;5065280;28;20959;-71
2021/07/30 05:57:58;;;;;;;5.73;4.30;;;17.20;1.00;;;;;;5068689;28;20444;-70
2021/07/30 06:00:25;;;;;;;7.27;4.60;;;17.30;1.00;;;;;;5066131;28;20488;-69
2021/07/30 06:02:51;;;;;;;6.33;4.60;;;17.40;1.00;;;;;;5064215;28;20649;-70
2021/07/30 06:05:18;;;;;;;7.33;4.27;;;17.50;1.00;;;;;;5065629;28;20454;-70
2021/07/30 06:07:45;;;;;;;6.03;4.20;;;17.60;1.00;;;;;;5063200;28;20436;-70
2021/07/30 06:10:12;;;;;;;4.07;3.67;;;17.70;1.00;;;;;;5067266;28;20534;-70
2021/07/30 06:12:38;;;;;;;4.53;4.10;;;17.80;1.00;;;;;;5069590;28;20458;-69
2021/07/30 06:15:07;;;;;;;5.80;3.70;;;17.90;1.00;;;;;;5065638;28;20450;-70
2021/07/30 06:17:35;;;;;;;8.30;3.87;;;18.00;1.00;;;;;;5066567;28;20450;-70
2021/07/30 06:20:01;;;;;;;6.40;4.10;;;18.10;1.00;;;;;;5065382;28;22415;-69
2021/07/30 06:22:28;;;;;;;6.40;4.50;;;18.20;1.00;;;;;;5063075;28;20464;-69
2021/07/30 06:24:55;;;;;;;6.27;3.57;;;18.30;1.00;;;;;;5063990;28;20447;-69
2021/07/30 06:27:21;;;;;;;6.57;4.10;;;18.40;1.00;;;;;;5064170;28;21791;-69
2021/07/30 06:29:48;;;;;;;4.70;4.10;;;18.50;1.00;;;;;;5064131;28;20982;-69
2021/07/30 06:32:16;;;;;;;5.00;3.77;;;18.60;1.00;;;;;;5065190;28;20519;-68
2021/07/30 06:34:42;;;;;;;6.50;4.47;;;18.60;1.00;;;;;;5066412;28;20445;-70
2021/07/30 06:37:09;;;;;;;4.80;3.67;;;18.70;1.00;;;;;;5063255;28;20461;-69
2021/07/30 06:39:35;;;;;;;5.90;3.73;;;18.80;1.00;;;;;;5064425;28;20493;-70
2021/07/30 06:42:03;;;;;;;6.77;4.40;;;18.90;1.00;;;;;;5063378;28;20467;-69
2021/07/30 06:44:29;;;;;;;7.33;4.90;;;18.90;1.00;;;;;;5062877;28;20947;-69
2021/07/30 06:46:56;;;;;;;6.07;3.97;;;19.00;1.00;;;;;;5066040;28;21499;-68
2021/07/30 06:49:24;;;;;;;5.30;3.87;;;19.10;1.00;;;;;;5064591;28;22221;-68
2021/07/30 06:51:50;;;;;;;11.60;4.33;;;19.20;1.00;;;;;;5064315;28;20552;-70
2021/07/30 06:54:17;;;;;;;5.77;3.50;;;19.20;1.00;;;;;;5063802;28;20436;-71
2021/07/30 06:56:45;;;;;;;8.03;3.43;;;19.20;1.00;;;;;;5065422;28;20610;-70
2021/07/30 06:59:12;;;;;;;5.60;4.40;;;19.30;1.00;;;;;;5062940;28;20457;-69
2021/07/30 07:01:39;;;;;;;8.20;4.60;;;19.30;1.00;;;;;;5065644;28;20582;-69
2021/07/30 07:04:06;;;;;;;8.07;4.60;;;19.30;1.00;;;;;;5069454;28;20526;-79
2021/07/30 07:06:33;;;;;;;5.03;3.93;;;19.40;1.00;;;;;;5074092;28;20957;-78
2021/07/30 07:09:00;;;;;;;5.70;3.50;;;19.50;1.00;;;;;;5070490;28;20454;-78
2021/07/30 07:11:27;;;;;;;5.00;4.40;;;19.50;1.00;;;;;;5074145;28;20446;-79
2021/07/30 07:13:53;;;;;;;5.77;3.90;;;19.60;1.00;;;;;;5071508;28;20448;-79
2021/07/30 07:16:20;;;;;;;5.53;4.73;;;19.70;1.00;;;;;;5071375;28;20537;-77
2021/07/30 07:18:47;;;;;;;6.77;3.97;;;19.80;1.00;;;;;;5069974;28;20459;-77
2021/07/30 07:21:16;;;;;;;5.10;4.07;;;19.90;1.00;;;;;;5069988;28;20847;-77
2021/07/30 07:23:44;;;;;;;6.07;4.33;;;20.00;1.00;;;;;;5070128;28;20444;-77
2021/07/30 07:26:11;;;;;;;6.10;3.97;;;20.10;1.00;;;;;;5074397;28;21455;-78
2021/07/30 07:28:37;;;;;;;4.70;3.60;;;20.20;1.00;;;;;;5068988;28;20815;-76
2021/07/30 07:31:04;;;;;;;6.23;3.47;;;20.30;1.00;;;;;;5074617;28;20475;-77
2021/07/30 07:33:31;;;;;;;5.60;3.53;;;20.40;1.00;;;;;;5074247;28;20523;-77
2021/07/30 07:35:57;;;;;;;6.60;4.70;;;20.40;1.00;;;;;;5072875;28;20911;-76
2021/07/30 07:38:24;;;;;;;6.13;4.23;;;20.50;1.00;;;;;;5072239;28;20586;-78
2021/07/30 07:40:52;;;;;;;8.80;4.20;;;20.50;1.00;;;;;;5073400;28;20497;-77
2021/07/30 07:43:19;;;;;;;6.83;4.77;;;20.60;1.00;;;;;;5073152;28;21252;-78
2021/07/30 07:45:46;;;;;;;4.53;3.70;;;20.70;1.00;;;;;;5070481;28;20444;-78
2021/07/30 07:48:12;;;;;;;5.20;4.00;;;20.80;1.00;;;;;;5073918;28;20452;-77
2021/07/30 07:50:40;;;;;;;8.43;3.90;;;20.80;1.00;;;;;;5071216;28;20912;-78
2021/07/30 07:53:13;;;;;;;5.13;3.57;;;20.90;1.00;;;;;;5076047;28;20553;-79
2021/07/30 07:55:40;;;;;;;5.77;3.80;;;21.10;1.00;;;;;;5075381;28;20528;-79
2021/07/30 07:58:08;;;;;;;6.00;4.70;;;21.10;1.00;;;;;;5073966;28;20529;-79
2021/07/30 08:00:35;;;;;;;6.00;4.33;;;21.20;1.00;;;;;;5072769;28;20534;-78
2021/07/30 08:03:02;;;;;;;4.90;3.80;;;21.10;1.00;;;;;;5071916;28;20454;-78
2021/07/30 08:05:29;;;;;;;4.90;4.43;;;21.20;1.00;;;;;;5070153;28;20432;-78
2021/07/30 08:07:55;;;;;;;6.80;4.43;;;21.20;1.00;;;;;;5073959;28;20488;-77
2021/07/30 08:10:22;;;;;;;5.97;4.77;;;21.30;1.00;;;;;;5071012;28;20426;-77
2021/07/30 08:12:49;;;;;;;7.90;3.90;;;21.40;1.00;;;;;;5072134;28;20453;-77
2021/07/30 08:15:17;;;;;;;6.53;4.30;;;21.50;1.00;;;;;;5073937;28;21268;-78
2021/07/30 08:17:43;;;;;;;5.63;4.47;;;21.60;1.00;;;;;;5073082;28;20519;-77
2021/07/30 08:20:11;;;;;;;7.47;4.30;;;21.80;1.00;;;;;;5095084;22;20469;-77
2021/07/30 08:22:41;;;;;;;5.10;4.03;;;21.90;1.00;;;;;;5062328;28;20573;-78
2021/07/30 08:25:07;;;;;;;5.30;4.10;;;22.10;1.00;;;;;;5056971;28;20485;-74
2021/07/30 08:27:35;;;;;;;13.07;4.60;;;22.40;1.00;;;;;;5063208;28;20468;-77
2021/07/30 08:30:02;;;;;;;8.30;4.70;;;22.60;1.00;;;;;;5059519;28;20470;-77
2021/07/30 08:32:30;;;;;;;6.33;4.53;;;22.70;1.00;;;;;;5065049;28;20421;-78
2021/07/30 08:34:57;;;;;;;7.37;3.90;;;22.70;1.00;;;;;;5066975;28;20451;-77
2021/07/30 08:37:23;;;;;;;8.23;5.33;;;22.70;1.00;;;;;;5062941;28;20506;-77
2021/07/30 08:39:50;;;;;;;8.20;4.60;;;22.80;1.00;;;;;;5068836;28;20518;-77
2021/07/30 08:42:18;;;;;;;6.10;4.47;;;22.80;1.00;;;;;;5064838;28;20477;-77
2021/07/30 08:44:46;;;;;;;7.27;3.90;;;22.90;1.00;;;;;;5065958;28;21636;-76
2021/07/30 08:47:14;;;;;;;5.50;4.00;;;22.90;1.00;;;;;;5066535;28;20458;-77
2021/07/30 08:49:42;;;;;;;4.57;3.20;;;22.90;1.00;;;;;;5068248;28;21043;-76
2021/07/30 08:52:11;;;;;;;6.53;4.30;;;22.90;1.00;;;;;;5058222;28;20733;-75
2021/07/30 08:54:38;;;;;;;6.53;4.33;;;23.10;1.00;;;;;;5054181;28;20455;-76
2021/07/30 08:57:08;;;;;;;6.30;4.00;;;23.20;1.00;;;;;;5053477;28;20440;-77
2021/07/30 08:59:36;;;;;;;7.33;4.03;;;23.40;1.00;;;;;;5045167;28;21565;-77
2021/07/30 09:02:03;;;;;;;6.20;4.00;;;23.70;1.00;;;;;;5046719;28;20404;-77
2021/07/30 09:04:31;;;;;;;7.23;4.30;;;23.90;1.00;;;;;;5044376;28;20452;-78
2021/07/30 09:07:02;;;;;;;4.90;3.37;;;24.00;1.00;;;;;;5047173;28;21606;-77
2021/07/30 09:09:30;;;;;;;9.00;4.97;;;23.80;1.00;;;;;;5044554;28;20471;-77
2021/07/30 09:11:59;;;;;;;4.83;4.03;;;23.90;1.00;;;;;;5043782;28;20443;-77
2021/07/30 09:14:34;;;;;;;4.73;3.83;;;23.80;1.00;;;;;;5048023;28;20456;-77
2021/07/30 09:17:01;;;;;;;6.33;4.33;;;23.80;1.00;;;;;;5051477;28;20529;-77
2021/07/30 09:19:28;;;;;;;6.13;4.03;;;23.60;1.00;;;;;;5049859;28;20836;-77
2021/07/30 09:22:07;;;;;;;6.33;3.70;;;23.60;1.00;;;;;;5045868;28;21650;-77
2021/07/30 09:24:36;;;;;;;6.10;3.63;;;23.80;1.00;;;;;;5063512;28;21712;-77
2021/07/30 09:27:04;;;;;;;4.20;3.13;;;23.70;1.00;;;;;;5046515;28;20569;-77
2021/07/30 09:29:32;;;;;;;5.73;4.07;;;23.60;1.00;;;;;;5049219;28;20533;-77
2021/07/30 09:32:01;;;;;;;4.90;3.57;;;23.70;1.00;;;;;;5047028;28;22820;-79
2021/07/30 09:34:29;;;;;;;4.47;3.37;;;23.90;1.00;;;;;;5053644;28;20564;-78
2021/07/30 09:36:58;;;;;;;5.27;3.00;;;24.30;1.00;;;;;;5046835;28;21420;-78
2021/07/30 09:39:35;;;;;;;5.87;3.40;;;25.00;1.00;;;;;;5050883;28;20559;-77
2021/07/30 09:42:07;;;;;;;6.97;3.83;;;26.30;1.00;;;;;;5045525;28;20460;-79
2021/07/30 09:44:37;;;;;;;6.63;3.53;;;27.60;1.00;;;;;;5051141;28;20437;-77
2021/07/30 09:47:13;;;;;;;6.10;3.43;;;28.00;1.00;;;;;;5052789;28;20544;-77
2021/07/30 09:49:43;;;;;;;4.53;4.13;;;28.30;1.00;;;;;;5051558;28;21050;-77
2021/07/30 09:52:12;;;;;;;5.30;3.50;;;28.80;1.00;;;;;;5048039;28;20457;-77
2021/07/30 09:54:44;;;;;;;6.27;3.30;;;29.80;1.00;;;;;;5049163;28;20442;-77
2021/07/30 09:57:13;;;;;;;6.20;3.50;;;31.10;1.00;;;;;;5047945;28;20546;-76
2021/07/30 09:59:42;;;;;;;6.93;3.70;;;30.70;1.00;;;;;;5047132;28;20440;-76
2021/07/30 10:02:12;;;;;;;5.30;3.37;;;29.40;1.00;;;;;;5045204;28;20443;-77
2021/07/30 10:04:40;;;;;;;6.50;3.30;;;29.10;1.00;;;;;;5050477;28;20459;-76
2021/07/30 10:07:07;;;;;;;4.77;3.47;;;29.80;1.00;;;;;;5050478;28;21509;-77
2021/07/30 10:09:34;;;;;;;4.83;3.23;;;30.20;1.00;;;;;;5049644;28;20460;-76
2021/07/30 10:12:04;;;;;;;5.30;3.33;;;29.70;1.00;;;;;;5061559;28;20879;-78
2021/07/30 10:14:30;;;;;;;4.40;3.70;;;29.40;1.00;;;;;;5053728;28;20439;-76
2021/07/30 10:17:02;;;;;;;2.97;2.40;;;29.70;1.00;;;;;;5047066;28;20467;-76
2021/07/30 10:19:30;;;;;;;7.37;3.73;;;30.40;1.00;;;;;;5047752;28;20465;-78
2021/07/30 10:22:00;;;;;;;4.77;3.50;;;30.60;1.00;;;;;;5040316;28;20459;-77
2021/07/30 10:24:28;;;;;;;4.23;3.10;;;30.40;1.00;;;;;;5049599;28;20487;-76
2021/07/30 10:26:56;;;;;;;10.47;5.60;;;30.50;1.00;;;;;;5043999;28;20529;-76
2021/07/30 10:29:24;;;;;;;5.00;3.77;;;30.30;1.00;;;;;;5054647;28;20427;-77
2021/07/30 10:31:51;;;;;;;6.30;4.00;;;29.90;1.00;;;;;;5062178;28;20435;-77
2021/07/30 10:34:18;;;;;;;6.20;4.00;;;29.40;1.00;;;;;;5066903;28;20513;-78
2021/07/30 10:36:45;;;;;;;5.73;3.10;;;29.10;1.00;;;;;;5052384;28;20427;-75
2021/07/30 10:39:16;;;;;;;4.30;3.20;;;30.10;1.00;;;;;;5044623;28;20424;-76
2021/07/30 10:42:10;;;;;;;5.53;3.20;;;30.70;1.00;;;;;;5044530;28;20666;-77
2021/07/30 10:45:17;;;;;;;5.63;3.70;;;31.40;1.00;;;;;;5049234;28;21110;-78
2021/07/30 10:47:44;;;;;;;7.53;3.40;;;31.80;1.00;;;;;;5040371;28;20479;-76
2021/07/30 10:50:44;;;;;;;4.50;3.23;;;32.10;1.00;;;;;;5048638;28;20456;-75
2021/07/30 10:53:45;;;;;;;5.30;2.80;;;32.20;1.00;;;;;;5047122;28;20439;-76
2021/07/30 10:56:47;;;;;;;6.93;4.27;;;32.80;1.00;;;;;;5052939;28;20415;-76
2021/07/30 10:59:15;;;;;;;5.70;3.33;;;33.50;1.00;;;;;;5066075;28;20468;-75
2021/07/30 11:01:58;;;;;;;5.20;2.83;;;33.60;1.00;;;;;;5052148;28;20496;-77
2021/07/30 11:04:25;;;;;;;7.73;2.97;;;34.00;1.00;;;;;;5054278;28;20502;-76
2021/07/30 11:06:59;;;;;;;5.27;3.13;;;34.10;1.00;;;;;;5052451;28;20463;-77
2021/07/30 11:09:39;;;;;;;4.27;2.47;;;34.20;1.00;;;;;;5051772;28;24044;-78
2021/07/30 11:12:18;;;;;;;4.60;3.00;;;34.10;1.00;;;;;;5052605;28;20451;-78
2021/07/30 11:14:48;;;;;;;5.27;2.83;;;34.10;1.00;;;;;;5053035;28;20507;-78
2021/07/30 11:17:16;;;;;;;3.03;2.70;;;34.30;1.00;;;;;;5049982;28;21335;-78
2021/07/30 11:19:46;;;;;;;5.33;2.27;;;34.50;1.00;;;;;;5051023;28;20443;-77
2021/07/30 11:22:14;;;;;;;3.80;2.80;;;34.70;1.00;;;;;;5048618;28;20475;-77
2021/07/30 11:24:43;;;;;;;4.70;3.00;;;35.00;1.00;;;;;;5050588;28;20411;-77
2021/07/30 11:27:11;;;;;;;5.63;3.50;;;35.10;1.00;;;;;;5045191;28;20471;-77
2021/07/30 11:29:37;;;;;;;4.60;2.63;;;35.00;1.00;;;;;;5046694;28;20635;-77
2021/07/30 11:32:06;;;;;;;3.70;2.47;;;35.50;1.00;;;;;;5048362;28;20463;-77
2021/07/30 11:34:35;;;;;;;5.40;2.97;;;35.80;1.00;;;;;;5046008;28;20444;-77
2021/07/30 11:37:04;;;;;;;3.40;2.60;;;36.30;1.00;;;;;;5069316;28;20481;-79
2021/07/30 11:39:38;;;;;;;4.20;3.03;;;35.60;1.00;;;;;;5054681;28;21462;-79
2021/07/30 11:42:05;;;;;;;4.67;2.70;;;35.00;1.00;;;;;;5051599;28;20490;-77
2021/07/30 11:44:42;;;;;;;4.00;2.90;;;35.00;1.00;;;;;;5044588;28;20439;-77
2021/07/30 11:47:09;;;;;;;5.20;3.13;;;35.10;1.00;;;;;;5050430;28;20590;-76
2021/07/30 11:49:39;;;;;;;4.30;2.73;;;34.50;1.00;;;;;;5050276;28;20526;-77
2021/07/30 11:52:09;;;;;;;4.23;2.20;;;34.60;1.00;;;;;;5053656;28;20488;-79
2021/07/30 11:54:36;;;;;;;7.20;3.20;;;33.50;1.00;;;;;;5049264;28;20443;-77
2021/07/30 11:57:04;;;;;;;5.70;3.50;;;33.50;1.00;;;;;;5047520;28;21937;-79
2021/07/30 11:59:44;;;;;;;3.40;2.43;;;34.30;1.00;;;;;;5045205;28;22688;-78
2021/07/30 12:02:11;;;;;;;3.33;2.87;;;35.10;1.00;;;;;;5048711;28;20483;-78
2021/07/30 12:04:50;;;;;;;5.03;3.30;;;35.70;1.00;;;;;;5049327;28;23701;-78
2021/07/30 12:07:19;;;;;;;3.97;2.80;;;35.90;1.00;;;;;;5054483;28;20495;-79
2021/07/30 12:09:50;;;;;;;4.77;3.30;;;35.80;1.00;;;;;;5054843;28;20568;-78
2021/07/30 12:12:18;;;;;;;3.13;2.83;;;36.30;1.00;;;;;;5059705;28;20464;-78
2021/07/30 12:14:48;;;;;;;4.13;2.70;;;36.80;1.00;;;;;;5063779;28;20408;-77
2021/07/30 12:17:15;;;;;;;5.67;3.03;;;37.00;1.00;;;;;;5049287;28;20640;-78
2021/07/30 12:19:44;;;;;;;3.60;2.97;;;36.70;1.00;;;;;;5044824;28;20435;-77
2021/07/30 12:22:11;;;;;;;4.90;2.93;;;36.20;1.00;;;;;;5047858;28;21708;-77
2021/07/30 12:24:48;;;;;;;3.33;2.63;;;36.00;1.00;;;;;;5050986;28;21075;-78
2021/07/30 12:27:18;;;;;;;3.50;3.20;;;35.00;1.00;;;;;;5047191;28;20454;-76
2021/07/30 12:29:47;;;;;;;6.70;3.27;;;34.30;1.00;;;;;;5047099;28;20419;-78
2021/07/30 12:32:16;;;;;;;3.80;3.10;;;33.30;1.00;;;;;;5045765;28;20457;-77
2021/07/30 12:34:55;;;;;;;6.80;3.50;;;33.40;1.00;;;;;;5051328;28;20424;-78
2021/07/30 12:37:22;;;;;;;5.70;3.87;;;33.80;1.00;;;;;;5049304;28;20455;-77
2021/07/30 12:39:50;;;;;;;7.70;3.70;;;34.20;1.00;;;;;;5049690;28;21301;-78
2021/07/30 12:42:21;;;;;;;4.20;2.90;;;33.80;1.00;;;;;;5062763;28;20465;-79
2021/07/30 12:45:09;;;;;;;4.13;3.37;;;33.80;1.00;;;;;;5052425;28;20420;-79
2021/07/30 12:47:39;;;;;;;4.17;2.63;;;33.80;1.00;;;;;;5049799;28;22216;-77
2021/07/30 12:50:28;;;;;;;6.47;3.40;;;34.00;1.00;;;;;;5051909;28;20464;-78
2021/07/30 12:53:11;;;;;;;4.27;3.20;;;34.00;1.00;;;;;;5054640;28;20454;-79
2021/07/30 12:55:57;;;;;;;4.50;3.07;;;34.40;1.00;;;;;;5048393;28;20542;-78
2021/07/30 12:58:24;;;;;;;6.10;3.00;;;35.00;1.00;;;;;;5053809;28;20515;-79
2021/07/30 13:00:51;;;;;;;4.80;2.93;;;35.30;1.00;;;;;;5058531;28;20500;-79
2021/07/30 13:03:18;;;;;;;4.17;2.93;;;35.60;1.00;;;;;;5063326;28;20434;-78
2021/07/30 13:05:51;;;;;;;5.60;2.63;;;36.10;1.00;;;;;;5058350;28;20436;-77